Time;durP1;ratioP1;P1;durP2;ratioP2;P2;SDS_P1;SDS_P2;PMS_P1;PMS_P2;Temp;Humidity;BMP_temperature;BMP_pressure;BME280_temperature;BME280_humidity;BME280_pressure;Samples;Min_cycle;Max_cycle;Signal;HPM_P1;HPM_P2
2022/12/13 00:00:41;;;;;;;31.48;14.27;;;-2.40;99.90;;;;;;5070750;28;20040;-71
2022/12/13 00:03:07;;;;;;;30.70;14.00;;;-2.30;99.90;;;;;;5070727;28;20040;-73
2022/12/13 00:05:33;;;;;;;32.85;14.60;;;-2.40;99.90;;;;;;5069961;28;20115;-70
2022/12/13 00:07:59;;;;;;;33.40;15.50;;;-2.30;99.90;;;;;;5070572;28;20545;-71
2022/12/13 00:10:25;;;;;;;35.55;13.35;;;-2.40;99.90;;;;;;5057137;28;20037;-74
2022/12/13 00:12:51;;;;;;;38.58;14.43;;;-2.40;99.90;;;;;;5071222;28;20086;-71
2022/12/13 00:15:18;;;;;;;36.65;13.32;;;-2.50;99.90;;;;;;5067572;28;20040;-72
2022/12/13 00:17:44;;;;;;;29.25;13.40;;;-2.50;99.90;;;;;;5091147;28;20040;-70
2022/12/13 00:20:10;;;;;;;41.50;16.08;;;-2.50;99.90;;;;;;5082555;28;20085;-71
2022/12/13 00:22:35;;;;;;;32.28;14.13;;;-2.60;99.90;;;;;;5061646;28;20609;-71
2022/12/13 00:25:01;;;;;;;29.90;13.43;;;-2.60;99.90;;;;;;5069792;28;20041;-70
2022/12/13 00:27:27;;;;;;;34.28;14.40;;;-2.50;99.90;;;;;;5070863;28;20075;-71
2022/12/13 00:29:52;;;;;;;40.20;16.42;;;-2.60;99.90;;;;;;5069831;28;20040;-71
2022/12/13 00:32:18;;;;;;;34.00;14.43;;;-2.50;99.90;;;;;;5075365;28;20124;-71
2022/12/13 00:34:43;;;;;;;37.38;15.48;;;-2.50;99.90;;;;;;5074638;28;20048;-71
2022/12/13 00:37:09;;;;;;;38.03;14.57;;;-2.50;99.90;;;;;;5076052;28;20047;-71
2022/12/13 00:39:34;;;;;;;38.28;15.88;;;-2.50;99.90;;;;;;5075393;28;20044;-71
2022/12/13 00:42:00;;;;;;;34.17;14.45;;;-2.50;99.90;;;;;;5073366;28;20096;-71
2022/12/13 00:44:26;;;;;;;37.22;14.02;;;-2.60;99.90;;;;;;5069936;28;20076;-71
2022/12/13 00:46:52;;;;;;;39.70;15.93;;;-2.70;99.90;;;;;;5051868;28;20043;-71
2022/12/13 00:49:18;;;;;;;38.80;17.02;;;-2.60;99.90;;;;;;5070534;28;20465;-71
2022/12/13 00:51:44;;;;;;;34.60;13.70;;;-2.60;99.90;;;;;;5070352;28;20040;-71
2022/12/13 00:54:10;;;;;;;33.88;14.50;;;-2.60;99.90;;;;;;5070362;28;20515;-72
2022/12/13 00:56:36;;;;;;;38.08;14.35;;;-2.70;99.90;;;;;;5074626;28;20691;-72
2022/12/13 00:59:03;;;;;;;36.50;14.45;;;-2.70;99.90;;;;;;5074043;28;20040;-71
2022/12/13 01:01:31;;;;;;;32.97;14.98;;;-2.60;99.90;;;;;;5074189;28;20089;-71
2022/12/13 01:03:59;;;;;;;40.58;15.27;;;-2.70;99.90;;;;;;5073286;28;20515;-71
2022/12/13 01:06:35;;;;;;;29.60;14.38;;;-2.70;99.90;;;;;;5074368;28;20044;-70
2022/12/13 01:09:02;;;;;;;30.92;14.50;;;-2.70;99.90;;;;;;5072771;28;20416;-71
2022/12/13 01:11:28;;;;;;;31.83;13.88;;;-2.80;99.90;;;;;;5055988;28;20088;-71
2022/12/13 01:13:53;;;;;;;27.13;13.80;;;-2.70;99.90;;;;;;5073297;28;20616;-71
2022/12/13 01:16:19;;;;;;;31.08;13.23;;;-2.70;99.90;;;;;;5074138;28;20532;-71
2022/12/13 01:18:44;;;;;;;29.90;13.63;;;-2.80;99.90;;;;;;5074083;28;20044;-71
2022/12/13 01:21:16;;;;;;;28.60;13.07;;;-2.80;99.90;;;;;;5073902;28;20041;-71
2022/12/13 01:23:43;;;;;;;33.70;13.75;;;-3.00;99.90;;;;;;5072992;28;20489;-71
2022/12/13 01:26:13;;;;;;;23.70;11.50;;;-3.10;99.90;;;;;;5073511;28;20032;-71
2022/12/13 01:28:39;;;;;;;34.30;13.75;;;-3.10;99.90;;;;;;5073744;28;20040;-72
2022/12/13 01:31:12;;;;;;;32.33;12.73;;;-3.00;99.90;;;;;;5073609;28;20485;-72
2022/12/13 01:33:38;;;;;;;35.15;13.20;;;-2.90;99.90;;;;;;5073865;28;20041;-71
2022/12/13 01:36:07;;;;;;;27.63;13.13;;;-2.90;99.90;;;;;;5072667;28;20036;-72
2022/12/13 01:38:33;;;;;;;23.73;11.95;;;-3.00;99.90;;;;;;5073413;28;20519;-70
2022/12/13 01:40:59;;;;;;;29.25;14.02;;;-3.00;99.90;;;;;;5073603;28;20207;-71
2022/12/13 01:43:49;;;;;;;25.88;12.38;;;-2.90;99.90;;;;;;5073417;28;20123;-71
2022/12/13 01:46:17;;;;;;;26.35;12.07;;;-2.90;99.90;;;;;;5073711;28;20078;-71
2022/12/13 01:49:06;;;;;;;29.00;11.73;;;-2.90;99.90;;;;;;5073453;28;20051;-72
2022/12/13 01:51:50;;;;;;;27.40;13.38;;;-2.90;99.90;;;;;;5073521;28;20757;-71
2022/12/13 01:54:23;;;;;;;27.10;12.82;;;-2.90;99.90;;;;;;5072470;28;20041;-72
2022/12/13 01:56:53;;;;;;;26.83;12.80;;;-3.00;99.90;;;;;;5073119;28;20507;-70
2022/12/13 01:59:19;;;;;;;33.03;12.95;;;-2.90;99.90;;;;;;5073055;28;20049;-71
2022/12/13 02:01:46;;;;;;;29.85;13.43;;;-3.00;99.90;;;;;;5073351;28;20036;-72
2022/12/13 02:04:12;;;;;;;27.25;13.52;;;-3.00;99.90;;;;;;5072215;28;20040;-71
2022/12/13 02:06:42;;;;;;;26.23;11.80;;;-3.00;99.90;;;;;;5070353;28;20412;-71
2022/12/13 02:09:09;;;;;;;30.88;12.43;;;-3.10;99.90;;;;;;5055200;28;20044;-71
2022/12/13 02:11:37;;;;;;;32.40;13.90;;;-3.00;99.90;;;;;;5073115;28;20055;-70
2022/12/13 02:14:04;;;;;;;29.65;13.38;;;-3.10;99.90;;;;;;5072093;28;20041;-71
2022/12/13 02:17:00;;;;;;;30.15;12.50;;;-3.00;99.90;;;;;;5072770;28;20515;-71
2022/12/13 02:19:55;;;;;;;27.48;12.23;;;-3.00;99.90;;;;;;5072530;28;20068;-71
2022/12/13 02:22:54;;;;;;;28.55;14.18;;;-3.10;99.90;;;;;;5072893;28;20450;-72
2022/12/13 02:25:55;;;;;;;30.60;13.27;;;-3.10;99.90;;;;;;5071892;28;20043;-71
2022/12/13 02:28:31;;;;;;;29.80;14.65;;;-3.00;99.90;;;;;;5072805;28;20423;-70
2022/12/13 02:31:09;;;;;;;32.92;14.07;;;-3.10;99.90;;;;;;5072662;28;20055;-70
2022/12/13 02:33:49;;;;;;;27.42;13.40;;;-3.20;99.90;;;;;;5072577;28;20458;-71
2022/12/13 02:36:48;;;;;;;26.70;14.90;;;-3.10;99.90;;;;;;5072391;28;20041;-71
2022/12/13 02:39:22;;;;;;;30.45;13.23;;;-3.00;99.90;;;;;;5071974;28;20060;-71
2022/12/13 02:41:50;;;;;;;28.33;14.20;;;-3.10;99.90;;;;;;5072395;28;20040;-72
2022/12/13 02:44:26;;;;;;;31.60;14.68;;;-3.10;99.90;;;;;;5070321;28;20041;-70
2022/12/13 02:47:05;;;;;;;26.67;12.63;;;-3.10;99.90;;;;;;5072362;28;20044;-71
2022/12/13 02:49:35;;;;;;;26.80;13.20;;;-3.10;99.90;;;;;;5072207;28;20051;-71
2022/12/13 02:52:02;;;;;;;27.67;13.65;;;-3.10;99.90;;;;;;5072376;28;20083;-70
2022/12/13 02:54:28;;;;;;;29.30;13.23;;;-3.10;99.90;;;;;;5071313;28;20532;-71
2022/12/13 02:56:58;;;;;;;25.38;12.90;;;-3.20;99.90;;;;;;5071949;28;20044;-71
2022/12/13 02:59:32;;;;;;;28.13;12.43;;;-3.30;99.90;;;;;;5071967;28;20048;-70
2022/12/13 03:02:16;;;;;;;30.88;12.20;;;-3.40;99.90;;;;;;5072051;28;20048;-71
2022/12/13 03:08:18;;;;;;;25.70;12.57;;;-3.20;99.90;;;;;;5072064;28;20080;-71
2022/12/13 03:10:55;;;;;;;28.65;11.52;;;-3.20;99.90;;;;;;5071974;28;20037;-70
2022/12/13 03:13:49;;;;;;;25.02;11.63;;;-3.30;99.90;;;;;;5071706;28;20044;-70
2022/12/13 03:16:25;;;;;;;29.45;11.90;;;-3.30;99.90;;;;;;5071533;28;20493;-71
2022/12/13 03:18:53;;;;;;;28.20;11.52;;;-3.30;99.90;;;;;;5071655;28;20072;-71
2022/12/13 03:21:19;;;;;;;27.00;12.00;;;-3.30;99.90;;;;;;5071585;28;20051;-71
2022/12/13 03:23:46;;;;;;;29.15;12.50;;;-3.20;99.90;;;;;;5071081;28;20111;-74
2022/12/13 03:26:16;;;;;;;27.92;13.75;;;-3.30;99.90;;;;;;5071328;28;20032;-70
2022/12/13 03:28:41;;;;;;;26.60;13.90;;;-3.50;99.90;;;;;;5071585;28;20032;-71
2022/12/13 03:31:07;;;;;;;30.05;13.50;;;-3.70;99.90;;;;;;5071618;28;20550;-70
2022/12/13 03:33:34;;;;;;;24.58;13.15;;;-3.60;99.90;;;;;;5071482;28;20514;-72
2022/12/13 03:36:00;;;;;;;34.78;12.50;;;-3.60;99.90;;;;;;5070591;28;20036;-71
2022/12/13 03:38:28;;;;;;;29.80;14.05;;;-3.50;99.90;;;;;;5070033;28;20052;-71
2022/12/13 03:40:57;;;;;;;32.38;13.45;;;-3.40;99.90;;;;;;5071198;28;20036;-70
2022/12/13 03:43:23;;;;;;;28.08;12.02;;;-3.40;99.90;;;;;;5071369;28;20645;-71
2022/12/13 03:45:53;;;;;;;33.55;14.70;;;-3.40;99.90;;;;;;5070594;28;20495;-72
2022/12/13 03:48:19;;;;;;;29.40;12.85;;;-3.60;99.90;;;;;;5071177;28;20032;-71
2022/12/13 03:50:44;;;;;;;36.60;13.70;;;-3.60;99.90;;;;;;5071332;28;20075;-71
2022/12/13 03:53:10;;;;;;;29.58;14.05;;;-3.50;99.90;;;;;;5070958;28;20099;-71
2022/12/13 03:55:36;;;;;;;30.35;13.38;;;-3.50;99.90;;;;;;5070283;28;20036;-71
2022/12/13 03:58:01;;;;;;;30.20;13.93;;;-3.40;99.90;;;;;;5070923;28;20044;-71
2022/12/13 04:00:27;;;;;;;30.98;13.93;;;-3.50;99.90;;;;;;5070887;28;20048;-70
2022/12/13 04:02:52;;;;;;;31.80;14.20;;;-3.50;99.90;;;;;;5070892;28;20046;-71
2022/12/13 04:05:18;;;;;;;32.58;13.70;;;-3.50;99.90;;;;;;5069983;28;20500;-70
2022/12/13 04:07:43;;;;;;;34.35;15.48;;;-3.40;99.90;;;;;;5070605;28;20516;-71
2022/12/13 04:10:09;;;;;;;32.53;15.38;;;-3.40;99.90;;;;;;5070068;28;20040;-71
2022/12/13 04:15:19;;;;;;;31.35;14.43;;;-3.40;99.90;;;;;;5070036;28;20535;-72
2022/12/13 04:17:45;;;;;;;32.40;15.38;;;-3.30;99.90;;;;;;5070550;28;20044;-70
2022/12/13 04:20:10;;;;;;;34.85;14.13;;;-3.40;99.90;;;;;;5070837;28;20044;-71
2022/12/13 04:22:36;;;;;;;29.73;12.75;;;-3.50;99.90;;;;;;5070547;28;20043;-71
2022/12/13 04:25:03;;;;;;;34.55;14.60;;;-3.60;99.90;;;;;;5070289;28;20093;-71
2022/12/13 04:27:28;;;;;;;37.83;17.05;;;-3.80;99.90;;;;;;5070529;28;20489;-70
2022/12/13 04:29:54;;;;;;;38.00;14.70;;;-3.70;99.90;;;;;;5074609;28;20037;-70
2022/12/13 04:32:20;;;;;;;35.47;14.45;;;-3.50;99.90;;;;;;5077494;28;20047;-72
2022/12/13 04:34:45;;;;;;;35.28;15.95;;;-3.60;99.90;;;;;;5076780;28;20048;-71
2022/12/13 04:37:11;;;;;;;42.92;15.55;;;-3.50;99.90;;;;;;5077315;28;20417;-71
2022/12/13 04:39:36;;;;;;;34.22;15.13;;;-3.50;99.90;;;;;;5075810;28;20040;-71
2022/12/13 04:42:03;;;;;;;35.03;14.20;;;-3.50;99.90;;;;;;5077332;28;20080;-71
2022/12/13 04:44:29;;;;;;;40.28;16.15;;;-3.60;99.90;;;;;;5076033;28;20032;-71
2022/12/13 04:46:54;;;;;;;40.38;15.75;;;-3.60;99.90;;;;;;5076947;28;20052;-72
2022/12/13 04:49:20;;;;;;;39.75;15.15;;;-3.60;99.90;;;;;;5077245;28;20112;-72
2022/12/13 04:51:45;;;;;;;35.88;16.42;;;-3.50;99.90;;;;;;5077338;28;20044;-71
2022/12/13 04:54:11;;;;;;;28.92;13.20;;;-3.50;99.90;;;;;;5076466;28;20049;-71
2022/12/13 04:56:37;;;;;;;37.80;15.00;;;-3.50;99.90;;;;;;5076968;28;20044;-70
2022/12/13 04:59:03;;;;;;;39.70;14.48;;;-3.70;99.90;;;;;;5076740;28;20040;-72
2022/12/13 05:01:28;;;;;;;29.13;13.32;;;-3.60;99.90;;;;;;5076437;28;20043;-71
2022/12/13 05:03:54;;;;;;;31.67;13.55;;;-3.60;99.90;;;;;;5076241;28;20048;-71
2022/12/13 05:06:19;;;;;;;27.92;13.65;;;-3.50;99.90;;;;;;5075401;28;20040;-71
2022/12/13 05:08:45;;;;;;;46.08;16.88;;;-3.50;99.90;;;;;;5076212;28;20112;-71
2022/12/13 05:11:11;;;;;;;40.63;18.15;;;-3.50;99.90;;;;;;5076748;28;20044;-73
2022/12/13 05:13:37;;;;;;;44.35;18.05;;;-3.60;99.90;;;;;;5076523;28;20185;-72
2022/12/13 05:16:05;;;;;;;52.80;20.55;;;-3.50;99.90;;;;;;5076048;28;20115;-71
2022/12/13 05:18:32;;;;;;;36.72;17.55;;;-3.60;99.90;;;;;;5076595;28;20075;-71
2022/12/13 05:21:06;;;;;;;47.17;19.30;;;-3.40;99.90;;;;;;5077081;28;20051;-71
2022/12/13 05:23:32;;;;;;;50.00;19.13;;;-3.50;99.90;;;;;;5075697;28;20050;-70
2022/12/13 05:25:59;;;;;;;46.92;20.17;;;-3.40;99.90;;;;;;5076180;28;20044;-71
2022/12/13 05:28:27;;;;;;;52.42;19.58;;;-3.50;99.90;;;;;;5076487;28;20500;-70
2022/12/13 05:30:54;;;;;;;55.63;19.55;;;-3.40;99.90;;;;;;5076945;28;20418;-71
2022/12/13 05:33:20;;;;;;;55.53;20.40;;;-3.40;99.90;;;;;;5076625;28;20036;-72
2022/12/13 05:35:45;;;;;;;59.95;23.55;;;-3.40;99.90;;;;;;5076018;28;20089;-70
2022/12/13 05:38:11;;;;;;;67.40;23.63;;;-3.30;99.90;;;;;;5075254;28;20067;-72
2022/12/13 05:40:37;;;;;;;56.92;22.50;;;-3.40;99.90;;;;;;5075700;28;20072;-70
2022/12/13 05:43:03;;;;;;;60.35;21.83;;;-3.30;99.90;;;;;;5073277;28;20067;-70
2022/12/13 05:45:30;;;;;;;60.30;23.58;;;-3.30;99.90;;;;;;5072814;28;20040;-71
2022/12/13 05:47:56;;;;;;;56.47;22.95;;;-3.40;99.90;;;;;;5073566;28;20170;-71
2022/12/13 05:50:22;;;;;;;58.33;22.00;;;-3.30;99.90;;;;;;5073572;28;20036;-72
2022/12/13 05:52:47;;;;;;;65.05;23.52;;;-3.30;99.90;;;;;;5073350;28;20047;-72
2022/12/13 05:55:13;;;;;;;65.03;23.80;;;-3.30;99.90;;;;;;5072473;28;20459;-70
2022/12/13 05:57:38;;;;;;;66.60;23.48;;;-3.20;99.90;;;;;;5073045;28;20365;-71
2022/12/13 06:00:07;;;;;;;72.03;25.58;;;-3.20;99.90;;;;;;5072157;28;20079;-71
2022/12/13 06:02:37;;;;;;;59.83;23.83;;;-3.20;99.90;;;;;;5073030;28;20045;-71
2022/12/13 06:05:02;;;;;;;49.25;22.23;;;-3.10;99.90;;;;;;5072412;28;20382;-71
2022/12/13 06:07:28;;;;;;;63.88;22.90;;;-3.10;99.90;;;;;;5071648;28;20047;-71
2022/12/13 06:09:53;;;;;;;48.80;21.15;;;-3.10;99.90;;;;;;5073138;28;20464;-71
2022/12/13 06:12:19;;;;;;;60.28;22.98;;;-3.10;99.90;;;;;;5072802;28;20118;-71
2022/12/13 06:14:44;;;;;;;59.58;23.30;;;-3.10;99.90;;;;;;5072378;28;20062;-71
2022/12/13 06:17:10;;;;;;;54.22;21.48;;;-3.10;99.90;;;;;;5072939;28;20040;-72
2022/12/13 06:19:36;;;;;;;54.03;20.77;;;-3.20;99.90;;;;;;5073134;28;20040;-70
2022/12/13 06:22:01;;;;;;;56.97;22.08;;;-3.20;99.90;;;;;;5072715;28;20044;-71
2022/12/13 06:24:27;;;;;;;53.28;20.70;;;-3.30;99.90;;;;;;5071909;28;20044;-71
2022/12/13 06:26:53;;;;;;;51.88;22.60;;;-3.20;99.90;;;;;;5072804;28;20037;-71
2022/12/13 06:29:20;;;;;;;52.33;23.05;;;-3.20;99.90;;;;;;5072847;28;20032;-71
2022/12/13 06:31:46;;;;;;;52.20;21.27;;;-3.30;99.90;;;;;;5072816;28;20048;-70
2022/12/13 06:34:12;;;;;;;65.68;21.15;;;-3.10;99.90;;;;;;5071570;28;20055;-70
2022/12/13 06:36:37;;;;;;;54.17;21.15;;;-3.30;99.90;;;;;;5072819;28;20127;-69
2022/12/13 06:39:05;;;;;;;49.47;20.83;;;-3.30;99.90;;;;;;5072161;28;20078;-69
2022/12/13 06:41:30;;;;;;;54.47;21.70;;;-3.30;99.90;;;;;;5072368;28;20041;-71
2022/12/13 06:43:57;;;;;;;55.15;20.55;;;-3.30;99.90;;;;;;5071639;28;20032;-69
2022/12/13 06:46:22;;;;;;;54.90;21.42;;;-3.30;99.90;;;;;;5072047;28;20694;-69
2022/12/13 06:48:48;;;;;;;51.58;18.80;;;-3.30;99.90;;;;;;5072289;28;20040;-69
2022/12/13 06:51:14;;;;;;;57.75;22.15;;;-3.40;99.90;;;;;;5053949;28;20119;-69
2022/12/13 06:53:40;;;;;;;50.10;19.55;;;-3.50;99.90;;;;;;5070488;28;20063;-69
2022/12/13 06:56:08;;;;;;;57.47;22.50;;;-3.50;99.90;;;;;;5071702;28;20083;-69
2022/12/13 06:58:34;;;;;;;57.42;22.00;;;-3.50;99.90;;;;;;5071642;28;20386;-72
2022/12/13 07:01:11;;;;;;;59.30;22.33;;;-3.50;99.90;;;;;;5071898;28;20036;-69
2022/12/13 07:03:37;;;;;;;54.25;22.23;;;-3.60;99.90;;;;;;5071023;28;20051;-69
2022/12/13 07:06:06;;;;;;;50.53;23.05;;;-3.70;99.90;;;;;;5071083;28;20036;-69
2022/12/13 07:08:31;;;;;;;55.95;23.02;;;-3.60;99.90;;;;;;5071603;28;20036;-70
2022/12/13 07:10:57;;;;;;;53.90;21.55;;;-3.60;99.90;;;;;;5065269;28;20052;-69
2022/12/13 07:13:22;;;;;;;63.17;22.02;;;-3.70;99.90;;;;;;5061769;28;20093;-69
2022/12/13 07:15:49;;;;;;;56.38;22.90;;;-3.80;99.90;;;;;;5060981;28;20064;-69
2022/12/13 07:18:15;;;;;;;49.55;20.73;;;-3.90;99.90;;;;;;5059991;28;20043;-69
2022/12/13 07:20:42;;;;;;;53.08;22.58;;;-3.80;99.90;;;;;;5060113;28;20036;-70
2022/12/13 07:23:08;;;;;;;58.03;22.23;;;-3.80;99.90;;;;;;5059460;28;20040;-70
2022/12/13 07:25:33;;;;;;;56.90;24.73;;;-3.80;99.90;;;;;;5044468;28;20041;-70
2022/12/13 07:28:02;;;;;;;53.10;23.10;;;-3.90;99.90;;;;;;5051277;28;20029;-69
2022/12/13 07:30:29;;;;;;;58.22;24.63;;;-3.80;99.90;;;;;;5052986;28;20456;-70
2022/12/13 07:32:54;;;;;;;55.22;22.83;;;-3.80;99.90;;;;;;5054743;28;20473;-69
2022/12/13 07:35:20;;;;;;;55.25;20.15;;;-3.80;99.90;;;;;;5058347;28;20075;-69
2022/12/13 07:37:45;;;;;;;59.92;23.02;;;-3.90;99.90;;;;;;5058255;28;20032;-70
2022/12/13 07:40:11;;;;;;;48.13;19.95;;;-4.00;99.90;;;;;;5056581;28;20132;-69
2022/12/13 07:42:37;;;;;;;52.80;20.17;;;-3.90;99.90;;;;;;5056745;28;20404;-70
2022/12/13 07:45:02;;;;;;;54.00;20.40;;;-4.00;99.90;;;;;;5061096;28;20044;-69
2022/12/13 07:47:30;;;;;;;54.88;22.02;;;-4.00;99.90;;;;;;5071401;28;20036;-70
2022/12/13 07:49:55;;;;;;;56.38;22.50;;;-4.00;99.90;;;;;;5070903;28;20048;-69
2022/12/13 07:52:21;;;;;;;54.42;20.80;;;-4.00;99.90;;;;;;5069966;28;20040;-69
2022/12/13 07:54:47;;;;;;;48.35;20.63;;;-3.90;99.90;;;;;;5070354;28;20040;-69
2022/12/13 07:57:12;;;;;;;51.70;20.55;;;-3.90;99.90;;;;;;5071050;28;20078;-70
2022/12/13 07:59:38;;;;;;;49.30;19.83;;;-4.10;99.90;;;;;;5070792;28;20043;-69
2022/12/13 08:02:11;;;;;;;47.63;20.23;;;-3.90;99.90;;;;;;5070128;28;20037;-69
2022/12/13 08:04:37;;;;;;;42.47;19.02;;;-3.90;99.90;;;;;;5065458;28;20044;-69
2022/12/13 08:07:06;;;;;;;44.65;20.05;;;-3.80;99.90;;;;;;5051178;28;20052;-71
2022/12/13 08:09:31;;;;;;;52.45;21.08;;;-3.90;99.90;;;;;;5063370;28;20040;-70
2022/12/13 08:11:57;;;;;;;51.20;20.98;;;-3.90;99.90;;;;;;5069834;28;20128;-70
2022/12/13 08:14:22;;;;;;;56.25;21.30;;;-4.00;99.90;;;;;;5068933;28;20412;-71
2022/12/13 08:16:48;;;;;;;46.13;19.70;;;-4.00;99.90;;;;;;5051637;28;20566;-70
2022/12/13 08:19:13;;;;;;;48.35;20.95;;;-4.00;99.90;;;;;;5068895;28;20562;-70
2022/12/13 08:21:40;;;;;;;51.35;19.45;;;-4.00;99.90;;;;;;5046350;28;20119;-70
2022/12/13 08:24:07;;;;;;;44.38;19.20;;;-4.00;99.90;;;;;;5069701;28;20044;-70
2022/12/13 08:26:32;;;;;;;44.08;19.88;;;-4.00;99.90;;;;;;5069613;28;20032;-69
2022/12/13 08:28:58;;;;;;;43.90;19.85;;;-4.10;99.90;;;;;;5069427;28;20512;-69
2022/12/13 08:31:24;;;;;;;47.50;20.17;;;-4.00;99.90;;;;;;5070767;28;20050;-69
2022/12/13 08:33:50;;;;;;;49.35;21.55;;;-3.80;99.90;;;;;;5069876;28;20051;-69
2022/12/13 08:36:16;;;;;;;47.45;18.23;;;-4.00;99.90;;;;;;5069499;28;20055;-69
2022/12/13 08:38:45;;;;;;;51.55;19.75;;;-4.00;99.90;;;;;;5070351;28;20093;-71
2022/12/13 08:41:12;;;;;;;55.92;21.27;;;-4.00;99.90;;;;;;5069040;28;20048;-71
2022/12/13 08:43:38;;;;;;;49.45;20.50;;;-4.00;99.90;;;;;;5070321;28;20044;-69
2022/12/13 08:46:04;;;;;;;52.25;21.80;;;-4.00;99.90;;;;;;5069202;28;20446;-70
2022/12/13 08:48:29;;;;;;;51.30;20.88;;;-3.90;99.90;;;;;;5070260;28;20115;-70
2022/12/13 08:50:59;;;;;;;47.00;18.40;;;-4.00;99.90;;;;;;5070444;28;20063;-69
2022/12/13 08:53:25;;;;;;;51.63;18.17;;;-4.00;99.90;;;;;;5070376;28;20044;-69
2022/12/13 08:55:50;;;;;;;49.85;20.40;;;-4.00;99.90;;;;;;5051686;28;20044;-69
2022/12/13 08:58:16;;;;;;;40.72;17.23;;;-4.00;99.90;;;;;;5070236;28;20063;-70
2022/12/13 09:00:44;;;;;;;42.03;17.67;;;-4.10;99.90;;;;;;5070511;28;20085;-69
2022/12/13 09:03:09;;;;;;;47.80;19.70;;;-4.10;99.90;;;;;;5069273;28;20052;-69
2022/12/13 09:05:35;;;;;;;46.55;18.30;;;-4.00;99.90;;;;;;5069633;28;20040;-69
2022/12/13 09:08:02;;;;;;;44.53;18.92;;;-4.00;99.90;;;;;;5070483;28;20048;-70
2022/12/13 09:10:28;;;;;;;41.78;18.92;;;-4.10;99.90;;;;;;5070375;28;20047;-70
2022/12/13 09:12:55;;;;;;;47.33;18.80;;;-4.00;99.90;;;;;;5069210;28;20045;-70
2022/12/13 09:15:20;;;;;;;49.78;19.77;;;-4.00;99.90;;;;;;5070262;28;20040;-70
2022/12/13 09:17:46;;;;;;;43.30;19.15;;;-3.90;99.90;;;;;;5074010;28;20528;-70
2022/12/13 09:20:11;;;;;;;42.15;19.88;;;-3.60;99.90;;;;;;5073918;28;20051;-69
2022/12/13 09:22:38;;;;;;;44.17;20.80;;;-3.60;99.90;;;;;;5073870;28;20040;-69
2022/12/13 09:25:04;;;;;;;47.78;20.50;;;-3.60;99.90;;;;;;5073124;28;20062;-69
2022/12/13 09:27:31;;;;;;;53.83;21.05;;;-3.60;99.90;;;;;;5073878;28;20037;-71
2022/12/13 09:29:57;;;;;;;38.47;19.13;;;-3.50;99.90;;;;;;5073741;28;20145;-70
2022/12/13 09:32:24;;;;;;;47.95;19.95;;;-3.40;99.90;;;;;;5073879;28;20086;-70
2022/12/13 09:34:49;;;;;;;47.33;19.38;;;-3.30;99.90;;;;;;5073177;28;20040;-69
2022/12/13 09:37:16;;;;;;;46.25;19.70;;;-3.20;99.90;;;;;;5073411;28;20048;-70
2022/12/13 09:39:41;;;;;;;47.33;20.17;;;-3.20;99.90;;;;;;5055584;28;20052;-69
2022/12/13 09:42:25;;;;;;;43.33;19.48;;;-3.10;99.90;;;;;;5073482;28;20115;-69
2022/12/13 09:44:58;;;;;;;45.88;18.65;;;-3.10;99.90;;;;;;5072800;28;20036;-69
2022/12/13 09:47:36;;;;;;;49.83;20.27;;;-3.00;99.90;;;;;;5055300;28;20178;-70
2022/12/13 09:50:07;;;;;;;49.22;20.17;;;-3.00;99.90;;;;;;5055297;28;20060;-69
2022/12/13 09:52:40;;;;;;;53.85;21.33;;;-3.00;99.90;;;;;;5071962;28;20043;-71
2022/12/13 09:55:20;;;;;;;;;;;-2.90;99.90;;;;;;5073191;28;20055;-69
2022/12/13 09:57:47;;;;;;;47.53;21.23;;;-2.90;99.90;;;;;;5073098;28;20351;-70
2022/12/13 10:00:15;;;;;;;50.05;20.45;;;-2.80;99.90;;;;;;5073191;28;20500;-69
2022/12/13 10:02:47;;;;;;;54.30;23.25;;;-2.70;99.90;;;;;;5071519;28;20102;-70
2022/12/13 10:05:22;;;;;;;52.35;24.63;;;-2.70;99.90;;;;;;5072591;28;20037;-69
2022/12/13 10:07:48;;;;;;;59.45;25.58;;;-2.60;99.90;;;;;;5073065;28;20052;-70
2022/12/13 10:10:14;;;;;;;62.47;27.88;;;-2.60;99.90;;;;;;5073026;28;20045;-69
2022/12/13 10:12:42;;;;;;;54.05;24.15;;;-2.60;99.90;;;;;;5071479;28;20036;-69
2022/12/13 10:15:14;;;;;;;59.25;26.30;;;-2.50;99.90;;;;;;5072396;28;20051;-69
2022/12/13 10:17:40;;;;;;;60.47;24.67;;;-2.40;99.90;;;;;;5073140;28;20071;-70
2022/12/13 10:20:15;;;;;;;53.80;22.50;;;-2.40;99.90;;;;;;5073048;28;20052;-70
2022/12/13 10:22:41;;;;;;;60.88;24.83;;;-2.40;99.90;;;;;;5071529;28;20424;-70
2022/12/13 10:25:07;;;;;;;62.22;25.80;;;-2.40;99.90;;;;;;5071247;28;20045;-67
2022/12/13 10:27:44;;;;;;;51.53;24.08;;;-2.10;99.90;;;;;;5072335;28;20041;-68
2022/12/13 10:30:11;;;;;;;59.45;24.50;;;-1.90;99.90;;;;;;5073364;28;20037;-68
2022/12/13 10:32:52;;;;;;;58.35;24.20;;;-1.80;99.90;;;;;;5073362;28;20044;-71
2022/12/13 10:35:21;;;;;;;55.50;23.48;;;-1.80;99.90;;;;;;5071855;28;20045;-68
2022/12/13 10:37:46;;;;;;;53.90;21.45;;;-1.80;99.90;;;;;;5072660;28;20123;-68
2022/12/13 10:40:35;;;;;;;51.70;23.88;;;-1.60;99.90;;;;;;5072637;28;20124;-69
2022/12/13 10:43:10;;;;;;;55.28;23.77;;;-1.50;99.90;;;;;;5072406;28;20041;-68
2022/12/13 10:45:35;;;;;;;47.67;23.45;;;-1.40;99.90;;;;;;5071599;28;20040;-67
2022/12/13 10:48:03;;;;;;;51.20;21.50;;;-1.40;99.90;;;;;;5070915;28;20045;-68
2022/12/13 10:50:29;;;;;;;53.30;23.10;;;-1.40;99.90;;;;;;5072101;28;20512;-68
2022/12/13 10:52:56;;;;;;;54.65;21.42;;;-1.40;99.90;;;;;;5072169;28;20127;-68
2022/12/13 10:55:27;;;;;;;57.72;21.75;;;-1.30;99.90;;;;;;5071440;28;20627;-68
2022/12/13 10:57:56;;;;;;;53.47;23.17;;;-1.30;99.90;;;;;;5071880;28;20492;-68
2022/12/13 11:00:37;;;;;;;60.05;23.90;;;-1.30;99.90;;;;;;5072366;28;20071;-68
2022/12/13 11:03:03;;;;;;;57.85;22.80;;;-1.20;99.90;;;;;;5071801;28;20452;-68
2022/12/13 11:05:35;;;;;;;42.65;21.25;;;-1.20;99.90;;;;;;5071464;28;20029;-67
2022/12/13 11:08:20;;;;;;;54.05;21.70;;;-1.10;99.90;;;;;;5071644;28;20029;-69
2022/12/13 11:10:56;;;;;;;47.70;22.02;;;-1.10;99.90;;;;;;5053970;28;20044;-68
2022/12/13 11:13:30;;;;;;;49.47;20.38;;;-1.00;99.90;;;;;;5071511;28;20090;-69
2022/12/13 11:15:55;;;;;;;49.05;21.00;;;-0.90;99.90;;;;;;5070773;28;20489;-68
2022/12/13 11:18:23;;;;;;;50.83;21.52;;;-0.80;99.90;;;;;;5069611;28;20040;-69
2022/12/13 11:20:55;;;;;;;50.55;21.50;;;-0.70;99.90;;;;;;5053657;28;20500;-71
2022/12/13 11:23:42;;;;;;;48.10;21.55;;;-0.80;99.90;;;;;;5071426;28;20036;-71
2022/12/13 11:26:13;;;;;;;48.97;21.50;;;-0.70;99.90;;;;;;5071572;28;20048;-67
2022/12/13 11:28:57;;;;;;;50.22;21.55;;;-0.70;99.90;;;;;;5071239;28;20037;-70
2022/12/13 11:31:50;;;;;;;55.85;22.00;;;-0.70;99.90;;;;;;5071646;28;20063;-68
2022/12/13 11:34:38;;;;;;;42.58;21.40;;;-0.80;99.90;;;;;;5070529;28;20131;-68
2022/12/13 11:37:32;;;;;;;49.60;22.67;;;-0.70;99.90;;;;;;5071445;28;20048;-68
2022/12/13 11:40:01;;;;;;;47.60;20.50;;;-0.60;99.90;;;;;;5071392;28;20047;-68
2022/12/13 11:42:30;;;;;;;49.05;21.58;;;-0.60;99.90;;;;;;5071513;28;20053;-68
2022/12/13 11:45:13;;;;;;;47.35;21.30;;;-0.60;99.90;;;;;;5070379;28;20076;-68
2022/12/13 11:47:47;;;;;;;49.65;21.95;;;-0.50;99.90;;;;;;5071316;28;20106;-68
2022/12/13 11:50:20;;;;;;;43.72;22.02;;;-0.40;99.90;;;;;;5071225;28;20036;-67
2022/12/13 11:52:53;;;;;;;49.80;22.45;;;-0.40;99.90;;;;;;5071202;28;20044;-68
2022/12/13 11:55:25;;;;;;;51.97;22.15;;;-0.40;99.90;;;;;;5070266;28;20044;-67
2022/12/13 11:58:10;;;;;;;48.83;23.08;;;-0.30;99.90;;;;;;5070839;28;20045;-68
2022/12/13 12:00:58;;;;;;;50.22;21.58;;;-0.30;99.90;;;;;;5071120;28;20821;-68
2022/12/13 12:03:57;;;;;;;48.42;22.83;;;-0.20;99.90;;;;;;5053187;28;20094;-70
2022/12/13 12:06:31;;;;;;;50.67;23.85;;;-0.30;99.90;;;;;;5070818;28;20185;-68
2022/12/13 12:09:02;;;;;;;51.25;22.20;;;-0.30;99.90;;;;;;5071040;28;20044;-68
2022/12/13 12:11:36;;;;;;;51.85;22.88;;;-0.30;99.90;;;;;;5067292;28;20063;-68
2022/12/13 12:14:11;;;;;;;49.72;21.00;;;-0.20;99.90;;;;;;5070320;28;20123;-68
2022/12/13 12:16:42;;;;;;;48.70;20.48;;;-0.20;99.90;;;;;;5070533;28;20125;-68
2022/12/13 12:19:21;;;;;;;45.53;21.90;;;-0.20;99.90;;;;;;5058966;28;20032;-69
2022/12/13 12:22:10;;;;;;;49.95;23.55;;;-0.10;99.90;;;;;;5050862;28;20048;-68
2022/12/13 12:24:45;;;;;;;42.53;20.23;;;-0.10;99.90;;;;;;5050351;28;20099;-70
2022/12/13 12:27:44;;;;;;;40.17;21.30;;;-0.10;99.90;;;;;;5049057;28;20120;-68
2022/12/13 12:30:15;;;;;;;42.92;20.10;;;-0.10;99.90;;;;;;5050909;28;20043;-68
2022/12/13 12:32:59;;;;;;;45.53;21.45;;;-0.10;99.90;;;;;;5050290;28;20069;-68
2022/12/13 12:35:41;;;;;;;47.42;21.52;;;-0.10;99.90;;;;;;5049710;28;20044;-68
2022/12/13 12:38:19;;;;;;;47.40;22.15;;;-0.10;99.90;;;;;;5049107;28;20099;-68
2022/12/13 12:41:03;;;;;;;43.30;20.23;;;0.00;99.90;;;;;;5055369;28;20068;-68
2022/12/13 12:43:40;;;;;;;45.80;21.92;;;-0.10;99.90;;;;;;5070524;28;20051;-69
2022/12/13 12:46:39;;;;;;;43.38;19.52;;;0.00;99.90;;;;;;5069980;28;20101;-67